sensor_id;sensor_type;location;lat;lon;timestamp;temperature;humidity
26537;DHT22;14204;51.262;5.488;2024-02-15T00:01:01;13.80;99.90
26537;DHT22;14204;51.262;5.488;2024-02-15T00:03:27;13.90;99.90
26537;DHT22;14204;51.262;5.488;2024-02-15T00:05:52;13.90;99.90
26537;DHT22;14204;51.262;5.488;2024-02-15T00:08:18;13.80;99.90
26537;DHT22;14204;51.262;5.488;2024-02-15T00:10:46;13.80;99.90
26537;DHT22;14204;51.262;5.488;2024-02-15T00:13:15;13.80;99.90
26537;DHT22;14204;51.262;5.488;2024-02-15T00:15:41;13.90;99.90
26537;DHT22;14204;51.262;5.488;2024-02-15T00:18:07;13.80;99.90
26537;DHT22;14204;51.262;5.488;2024-02-15T00:20:32;13.90;99.90
26537;DHT22;14204;51.262;5.488;2024-02-15T00:23:01;13.80;99.90
26537;DHT22;14204;51.262;5.488;2024-02-15T00:25:27;13.80;99.90
26537;DHT22;14204;51.262;5.488;2024-02-15T00:27:53;13.90;99.90
26537;DHT22;14204;51.262;5.488;2024-02-15T00:30:18;13.80;99.90
26537;DHT22;14204;51.262;5.488;2024-02-15T00:32:44;13.80;99.90
26537;DHT22;14204;51.262;5.488;2024-02-15T00:35:11;13.90;99.90
26537;DHT22;14204;51.262;5.488;2024-02-15T00:37:40;14.00;99.90
26537;DHT22;14204;51.262;5.488;2024-02-15T00:40:07;13.90;99.90
26537;DHT22;14204;51.262;5.488;2024-02-15T00:42:33;13.80;99.90
26537;DHT22;14204;51.262;5.488;2024-02-15T00:44:58;13.90;99.90
26537;DHT22;14204;51.262;5.488;2024-02-15T00:47:24;13.80;99.90
26537;DHT22;14204;51.262;5.488;2024-02-15T00:49:50;13.80;99.90
26537;DHT22;14204;51.262;5.488;2024-02-15T00:52:16;13.80;99.90
26537;DHT22;14204;51.262;5.488;2024-02-15T00:54:46;13.80;99.90
26537;DHT22;14204;51.262;5.488;2024-02-15T00:57:11;13.80;99.90
26537;DHT22;14204;51.262;5.488;2024-02-15T00:59:37;13.80;99.90
26537;DHT22;14204;51.262;5.488;2024-02-15T01:02:03;13.80;99.90
26537;DHT22;14204;51.262;5.488;2024-02-15T01:04:29;13.80;99.90
26537;DHT22;14204;51.262;5.488;2024-02-15T01:06:55;13.80;99.90
26537;DHT22;14204;51.262;5.488;2024-02-15T01:09:23;13.80;99.90
26537;DHT22;14204;51.262;5.488;2024-02-15T01:11:49;13.80;99.90
26537;DHT22;14204;51.262;5.488;2024-02-15T01:14:15;13.80;99.90
26537;DHT22;14204;51.262;5.488;2024-02-15T01:16:41;13.90;99.90
26537;DHT22;14204;51.262;5.488;2024-02-15T01:19:07;13.90;99.90
26537;DHT22;14204;51.262;5.488;2024-02-15T01:21:33;13.80;99.90
26537;DHT22;14204;51.262;5.488;2024-02-15T01:23:59;13.80;99.90
26537;DHT22;14204;51.262;5.488;2024-02-15T01:26:26;13.80;99.90
26537;DHT22;14204;51.262;5.488;2024-02-15T01:28:52;13.80;99.90
26537;DHT22;14204;51.262;5.488;2024-02-15T01:31:18;13.80;99.90
26537;DHT22;14204;51.262;5.488;2024-02-15T01:33:44;13.80;99.90
26537;DHT22;14204;51.262;5.488;2024-02-15T01:36:17;13.80;99.90
26537;DHT22;14204;51.262;5.488;2024-02-15T01:38:43;13.80;99.90
26537;DHT22;14204;51.262;5.488;2024-02-15T01:41:09;13.70;99.90
26537;DHT22;14204;51.262;5.488;2024-02-15T01:43:35;13.70;99.90
26537;DHT22;14204;51.262;5.488;2024-02-15T01:46:09;13.80;99.90
26537;DHT22;14204;51.262;5.488;2024-02-15T01:48:37;13.80;99.90
26537;DHT22;14204;51.262;5.488;2024-02-15T01:51:04;13.80;99.90
26537;DHT22;14204;51.262;5.488;2024-02-15T01:53:30;13.80;99.90
26537;DHT22;14204;51.262;5.488;2024-02-15T01:55:57;13.80;99.90
26537;DHT22;14204;51.262;5.488;2024-02-15T01:58:24;13.80;99.90
26537;DHT22;14204;51.262;5.488;2024-02-15T02:00:51;13.80;99.90
26537;DHT22;14204;51.262;5.488;2024-02-15T02:03:17;13.80;99.90
26537;DHT22;14204;51.262;5.488;2024-02-15T02:05:45;13.70;99.90
26537;DHT22;14204;51.262;5.488;2024-02-15T02:08:11;13.70;99.90
26537;DHT22;14204;51.262;5.488;2024-02-15T02:10:37;13.60;99.90
26537;DHT22;14204;51.262;5.488;2024-02-15T02:13:04;13.60;99.90
26537;DHT22;14204;51.262;5.488;2024-02-15T02:15:34;13.60;99.90
26537;DHT22;14204;51.262;5.488;2024-02-15T02:18:03;13.60;99.90
26537;DHT22;14204;51.262;5.488;2024-02-15T02:20:31;13.60;99.90
26537;DHT22;14204;51.262;5.488;2024-02-15T02:23:18;13.60;99.90
26537;DHT22;14204;51.262;5.488;2024-02-15T02:25:48;13.60;99.90
26537;DHT22;14204;51.262;5.488;2024-02-15T02:28:14;13.50;99.90
26537;DHT22;14204;51.262;5.488;2024-02-15T02:30:41;13.60;99.90
26537;DHT22;14204;51.262;5.488;2024-02-15T02:33:12;13.50;99.90
26537;DHT22;14204;51.262;5.488;2024-02-15T02:35:47;13.50;99.90
26537;DHT22;14204;51.262;5.488;2024-02-15T02:38:13;13.50;99.90
26537;DHT22;14204;51.262;5.488;2024-02-15T02:40:40;13.50;99.90
26537;DHT22;14204;51.262;5.488;2024-02-15T02:43:06;13.50;99.90
26537;DHT22;14204;51.262;5.488;2024-02-15T02:45:32;13.50;99.90
26537;DHT22;14204;51.262;5.488;2024-02-15T02:47:58;13.50;99.90
26537;DHT22;14204;51.262;5.488;2024-02-15T02:50:24;13.50;99.90
26537;DHT22;14204;51.262;5.488;2024-02-15T02:52:50;13.50;99.90
26537;DHT22;14204;51.262;5.488;2024-02-15T02:55:16;13.50;99.90
26537;DHT22;14204;51.262;5.488;2024-02-15T02:57:42;13.60;99.90
26537;DHT22;14204;51.262;5.488;2024-02-15T03:00:10;13.50;99.90
26537;DHT22;14204;51.262;5.488;2024-02-15T03:02:39;13.50;99.90
26537;DHT22;14204;51.262;5.488;2024-02-15T03:05:05;13.60;99.90
26537;DHT22;14204;51.262;5.488;2024-02-15T03:07:38;13.60;99.90
26537;DHT22;14204;51.262;5.488;2024-02-15T03:10:06;13.60;99.90
26537;DHT22;14204;51.262;5.488;2024-02-15T03:12:35;13.50;99.90
26537;DHT22;14204;51.262;5.488;2024-02-15T03:15:02;13.60;99.90
26537;DHT22;14204;51.262;5.488;2024-02-15T03:17:29;13.60;99.90
26537;DHT22;14204;51.262;5.488;2024-02-15T03:19:57;13.60;99.90
26537;DHT22;14204;51.262;5.488;2024-02-15T03:22:23;13.50;99.90
26537;DHT22;14204;51.262;5.488;2024-02-15T03:24:51;13.50;99.90
26537;DHT22;14204;51.262;5.488;2024-02-15T03:27:16;13.60;99.90
26537;DHT22;14204;51.262;5.488;2024-02-15T03:29:42;13.60;99.90
26537;DHT22;14204;51.262;5.488;2024-02-15T03:32:08;13.60;99.90
26537;DHT22;14204;51.262;5.488;2024-02-15T03:34:35;13.60;99.90
26537;DHT22;14204;51.262;5.488;2024-02-15T03:37:01;13.60;99.90
26537;DHT22;14204;51.262;5.488;2024-02-15T03:39:30;13.60;99.90
26537;DHT22;14204;51.262;5.488;2024-02-15T03:41:56;13.70;99.90
26537;DHT22;14204;51.262;5.488;2024-02-15T03:44:23;13.60;99.90
26537;DHT22;14204;51.262;5.488;2024-02-15T03:46:52;13.60;99.90
26537;DHT22;14204;51.262;5.488;2024-02-15T03:49:18;13.60;99.90
26537;DHT22;14204;51.262;5.488;2024-02-15T03:51:44;13.60;99.90
26537;DHT22;14204;51.262;5.488;2024-02-15T03:54:13;13.60;99.90
26537;DHT22;14204;51.262;5.488;2024-02-15T03:56:51;13.70;99.90
26537;DHT22;14204;51.262;5.488;2024-02-15T03:59:19;13.60;99.90
26537;DHT22;14204;51.262;5.488;2024-02-15T04:01:53;13.60;99.90
26537;DHT22;14204;51.262;5.488;2024-02-15T04:04:19;13.60;99.90
26537;DHT22;14204;51.262;5.488;2024-02-15T04:06:49;13.60;99.90
26537;DHT22;14204;51.262;5.488;2024-02-15T04:09:15;13.60;99.90
26537;DHT22;14204;51.262;5.488;2024-02-15T04:11:43;13.60;99.90
26537;DHT22;14204;51.262;5.488;2024-02-15T04:14:09;13.50;99.90
26537;DHT22;14204;51.262;5.488;2024-02-15T04:16:35;13.60;99.90
26537;DHT22;14204;51.262;5.488;2024-02-15T04:19:01;13.60;99.90
26537;DHT22;14204;51.262;5.488;2024-02-15T04:21:28;13.60;99.90
26537;DHT22;14204;51.262;5.488;2024-02-15T04:23:54;13.60;99.90
26537;DHT22;14204;51.262;5.488;2024-02-15T04:26:20;13.60;99.90
26537;DHT22;14204;51.262;5.488;2024-02-15T04:28:46;13.60;99.90
26537;DHT22;14204;51.262;5.488;2024-02-15T04:31:18;13.60;99.90
26537;DHT22;14204;51.262;5.488;2024-02-15T04:33:44;13.60;99.90
26537;DHT22;14204;51.262;5.488;2024-02-15T04:36:09;13.70;99.90
26537;DHT22;14204;51.262;5.488;2024-02-15T04:38:39;13.70;99.90
26537;DHT22;14204;51.262;5.488;2024-02-15T04:41:05;13.70;99.90
26537;DHT22;14204;51.262;5.488;2024-02-15T04:43:34;13.70;99.90
26537;DHT22;14204;51.262;5.488;2024-02-15T04:46:01;13.70;99.90
26537;DHT22;14204;51.262;5.488;2024-02-15T04:48:27;13.60;99.90
26537;DHT22;14204;51.262;5.488;2024-02-15T04:50:55;13.60;99.90
26537;DHT22;14204;51.262;5.488;2024-02-15T04:53:24;13.60;99.90
26537;DHT22;14204;51.262;5.488;2024-02-15T04:55:50;13.60;99.90
26537;DHT22;14204;51.262;5.488;2024-02-15T04:58:16;13.60;99.90
26537;DHT22;14204;51.262;5.488;2024-02-15T05:00:41;13.60;99.90
26537;DHT22;14204;51.262;5.488;2024-02-15T05:03:07;13.60;99.90
26537;DHT22;14204;51.262;5.488;2024-02-15T05:05:33;13.60;99.90
26537;DHT22;14204;51.262;5.488;2024-02-15T05:07:59;13.70;99.90
26537;DHT22;14204;51.262;5.488;2024-02-15T05:10:26;13.70;99.90
26537;DHT22;14204;51.262;5.488;2024-02-15T05:12:52;13.70;99.90
26537;DHT22;14204;51.262;5.488;2024-02-15T05:15:19;13.70;99.90
26537;DHT22;14204;51.262;5.488;2024-02-15T05:17:48;13.60;99.90
26537;DHT22;14204;51.262;5.488;2024-02-15T05:20:15;13.70;99.90
26537;DHT22;14204;51.262;5.488;2024-02-15T05:22:41;13.70;99.90
26537;DHT22;14204;51.262;5.488;2024-02-15T05:25:11;13.70;99.90
26537;DHT22;14204;51.262;5.488;2024-02-15T05:27:38;13.80;99.90
26537;DHT22;14204;51.262;5.488;2024-02-15T05:30:04;13.70;99.90
26537;DHT22;14204;51.262;5.488;2024-02-15T05:32:36;13.70;99.90
26537;DHT22;14204;51.262;5.488;2024-02-15T05:35:11;13.80;99.90
26537;DHT22;14204;51.262;5.488;2024-02-15T05:37:37;13.80;99.90
26537;DHT22;14204;51.262;5.488;2024-02-15T05:40:04;13.70;99.90
26537;DHT22;14204;51.262;5.488;2024-02-15T05:42:30;13.70;99.90
26537;DHT22;14204;51.262;5.488;2024-02-15T05:45:26;13.70;99.90
26537;DHT22;14204;51.262;5.488;2024-02-15T05:47:46;13.70;99.90
26537;DHT22;14204;51.262;5.488;2024-02-15T05:50:12;13.70;99.90
26537;DHT22;14204;51.262;5.488;2024-02-15T05:52:37;13.70;99.90
26537;DHT22;14204;51.262;5.488;2024-02-15T05:55:03;13.70;99.90
26537;DHT22;14204;51.262;5.488;2024-02-15T05:57:29;13.70;99.90
26537;DHT22;14204;51.262;5.488;2024-02-15T05:59:55;13.70;99.90
26537;DHT22;14204;51.262;5.488;2024-02-15T06:02:20;13.70;99.90
26537;DHT22;14204;51.262;5.488;2024-02-15T06:04:46;13.70;99.90
26537;DHT22;14204;51.262;5.488;2024-02-15T06:07:12;13.60;99.90
26537;DHT22;14204;51.262;5.488;2024-02-15T06:09:37;13.70;99.90
26537;DHT22;14204;51.262;5.488;2024-02-15T06:12:06;13.70;99.90
26537;DHT22;14204;51.262;5.488;2024-02-15T06:14:31;13.70;99.90
26537;DHT22;14204;51.262;5.488;2024-02-15T06:16:57;13.70;99.90
26537;DHT22;14204;51.262;5.488;2024-02-15T06:19:23;13.60;99.90
26537;DHT22;14204;51.262;5.488;2024-02-15T06:21:49;13.60;99.90
26537;DHT22;14204;51.262;5.488;2024-02-15T06:24:15;13.60;99.90
26537;DHT22;14204;51.262;5.488;2024-02-15T06:26:41;13.60;99.90
26537;DHT22;14204;51.262;5.488;2024-02-15T06:29:07;13.60;99.90
26537;DHT22;14204;51.262;5.488;2024-02-15T06:31:51;13.60;99.90
26537;DHT22;14204;51.262;5.488;2024-02-15T06:34:36;13.60;99.90
26537;DHT22;14204;51.262;5.488;2024-02-15T06:37:38;13.60;99.90
26537;DHT22;14204;51.262;5.488;2024-02-15T06:40:22;13.50;99.90
26537;DHT22;14204;51.262;5.488;2024-02-15T06:42:48;13.50;99.90
26537;DHT22;14204;51.262;5.488;2024-02-15T06:45:14;13.60;99.90
26537;DHT22;14204;51.262;5.488;2024-02-15T06:47:46;13.60;99.90
26537;DHT22;14204;51.262;5.488;2024-02-15T06:50:12;13.60;99.90
26537;DHT22;14204;51.262;5.488;2024-02-15T06:52:39;13.60;99.90
26537;DHT22;14204;51.262;5.488;2024-02-15T06:55:08;13.60;99.90
26537;DHT22;14204;51.262;5.488;2024-02-15T06:57:40;13.50;99.90
26537;DHT22;14204;51.262;5.488;2024-02-15T07:00:07;13.50;99.90
26537;DHT22;14204;51.262;5.488;2024-02-15T07:02:34;13.50;99.90
26537;DHT22;14204;51.262;5.488;2024-02-15T07:04:59;13.50;99.90
26537;DHT22;14204;51.262;5.488;2024-02-15T07:07:25;13.60;99.90
26537;DHT22;14204;51.262;5.488;2024-02-15T07:09:51;13.60;99.90
26537;DHT22;14204;51.262;5.488;2024-02-15T07:12:19;13.60;99.90
26537;DHT22;14204;51.262;5.488;2024-02-15T07:14:50;13.60;99.90
26537;DHT22;14204;51.262;5.488;2024-02-15T07:20:30;13.60;99.90
26537;DHT22;14204;51.262;5.488;2024-02-15T07:22:56;13.70;99.90
26537;DHT22;14204;51.262;5.488;2024-02-15T07:25:23;13.70;99.90
26537;DHT22;14204;51.262;5.488;2024-02-15T07:27:49;13.60;99.90
26537;DHT22;14204;51.262;5.488;2024-02-15T07:30:15;13.60;99.90
26537;DHT22;14204;51.262;5.488;2024-02-15T07:32:41;13.60;99.90
26537;DHT22;14204;51.262;5.488;2024-02-15T07:35:07;13.50;99.90
26537;DHT22;14204;51.262;5.488;2024-02-15T07:37:33;13.60;99.90
26537;DHT22;14204;51.262;5.488;2024-02-15T07:39:59;13.50;99.90
26537;DHT22;14204;51.262;5.488;2024-02-15T07:42:25;13.60;99.90
26537;DHT22;14204;51.262;5.488;2024-02-15T07:44:52;13.60;99.90
26537;DHT22;14204;51.262;5.488;2024-02-15T07:47:20;13.60;99.90
26537;DHT22;14204;51.262;5.488;2024-02-15T07:49:50;13.60;99.90
26537;DHT22;14204;51.262;5.488;2024-02-15T07:52:16;13.60;99.90
26537;DHT22;14204;51.262;5.488;2024-02-15T07:54:42;13.60;99.90
26537;DHT22;14204;51.262;5.488;2024-02-15T07:57:08;13.50;99.90
26537;DHT22;14204;51.262;5.488;2024-02-15T07:59:34;13.50;99.90
26537;DHT22;14204;51.262;5.488;2024-02-15T08:02:01;13.60;99.90
26537;DHT22;14204;51.262;5.488;2024-02-15T08:04:27;13.60;99.90
26537;DHT22;14204;51.262;5.488;2024-02-15T08:06:54;13.60;99.90
26537;DHT22;14204;51.262;5.488;2024-02-15T08:09:21;13.60;99.90
26537;DHT22;14204;51.262;5.488;2024-02-15T08:11:49;13.60;99.90
26537;DHT22;14204;51.262;5.488;2024-02-15T08:14:16;13.60;99.90
26537;DHT22;14204;51.262;5.488;2024-02-15T08:16:42;13.70;99.90
26537;DHT22;14204;51.262;5.488;2024-02-15T08:19:08;13.80;99.90
26537;DHT22;14204;51.262;5.488;2024-02-15T08:21:34;13.80;99.90
26537;DHT22;14204;51.262;5.488;2024-02-15T08:24:03;13.80;99.90
26537;DHT22;14204;51.262;5.488;2024-02-15T08:26:32;13.80;99.90
26537;DHT22;14204;51.262;5.488;2024-02-15T08:28:58;13.80;99.90
26537;DHT22;14204;51.262;5.488;2024-02-15T08:31:28;13.80;99.90
26537;DHT22;14204;51.262;5.488;2024-02-15T08:34:03;13.70;99.90
26537;DHT22;14204;51.262;5.488;2024-02-15T08:36:37;13.80;99.90
26537;DHT22;14204;51.262;5.488;2024-02-15T08:39:05;13.80;99.90
26537;DHT22;14204;51.262;5.488;2024-02-15T08:41:31;13.90;99.90
26537;DHT22;14204;51.262;5.488;2024-02-15T08:43:57;13.80;99.90
26537;DHT22;14204;51.262;5.488;2024-02-15T08:46:23;13.90;99.90
26537;DHT22;14204;51.262;5.488;2024-02-15T08:48:51;13.90;99.90
26537;DHT22;14204;51.262;5.488;2024-02-15T08:51:17;13.90;99.90
26537;DHT22;14204;51.262;5.488;2024-02-15T08:53:43;13.90;99.90
26537;DHT22;14204;51.262;5.488;2024-02-15T08:56:09;13.90;99.90
26537;DHT22;14204;51.262;5.488;2024-02-15T08:58:35;13.90;99.90
26537;DHT22;14204;51.262;5.488;2024-02-15T09:01:01;14.00;99.90
26537;DHT22;14204;51.262;5.488;2024-02-15T09:03:28;14.00;99.90
26537;DHT22;14204;51.262;5.488;2024-02-15T09:05:54;14.00;99.90
26537;DHT22;14204;51.262;5.488;2024-02-15T09:08:20;14.00;99.90
26537;DHT22;14204;51.262;5.488;2024-02-15T09:10:47;14.10;99.90
26537;DHT22;14204;51.262;5.488;2024-02-15T09:13:15;14.10;99.90
26537;DHT22;14204;51.262;5.488;2024-02-15T09:15:41;14.10;99.90
26537;DHT22;14204;51.262;5.488;2024-02-15T09:18:08;14.10;99.90
26537;DHT22;14204;51.262;5.488;2024-02-15T09:20:35;14.10;99.90
26537;DHT22;14204;51.262;5.488;2024-02-15T09:23:03;14.10;99.90
26537;DHT22;14204;51.262;5.488;2024-02-15T09:25:37;14.10;99.90
26537;DHT22;14204;51.262;5.488;2024-02-15T09:28:03;14.10;99.90
26537;DHT22;14204;51.262;5.488;2024-02-15T09:30:29;14.10;99.90
26537;DHT22;14204;51.262;5.488;2024-02-15T09:32:57;14.20;99.90
26537;DHT22;14204;51.262;5.488;2024-02-15T09:35:23;14.20;99.90
26537;DHT22;14204;51.262;5.488;2024-02-15T09:37:49;14.20;99.90
26537;DHT22;14204;51.262;5.488;2024-02-15T09:40:16;14.20;99.90
26537;DHT22;14204;51.262;5.488;2024-02-15T09:42:43;14.30;99.90
26537;DHT22;14204;51.262;5.488;2024-02-15T09:45:11;14.30;99.90
26537;DHT22;14204;51.262;5.488;2024-02-15T09:47:42;14.40;99.90
26537;DHT22;14204;51.262;5.488;2024-02-15T09:50:26;14.40;99.90
26537;DHT22;14204;51.262;5.488;2024-02-15T09:53:00;14.40;99.90
26537;DHT22;14204;51.262;5.488;2024-02-15T09:55:34;14.50;99.90
26537;DHT22;14204;51.262;5.488;2024-02-15T09:58:02;14.50;99.90
26537;DHT22;14204;51.262;5.488;2024-02-15T10:00:33;14.50;99.90
26537;DHT22;14204;51.262;5.488;2024-02-15T10:03:00;14.60;99.90
26537;DHT22;14204;51.262;5.488;2024-02-15T10:05:28;14.70;99.90
26537;DHT22;14204;51.262;5.488;2024-02-15T10:08:03;14.70;99.90
26537;DHT22;14204;51.262;5.488;2024-02-15T10:10:29;14.80;99.90
26537;DHT22;14204;51.262;5.488;2024-02-15T10:12:55;14.90;99.90
26537;DHT22;14204;51.262;5.488;2024-02-15T10:15:38;14.90;99.90
26537;DHT22;14204;51.262;5.488;2024-02-15T10:18:04;15.00;99.90
26537;DHT22;14204;51.262;5.488;2024-02-15T10:20:30;15.00;99.90
26537;DHT22;14204;51.262;5.488;2024-02-15T10:25:28;15.10;99.90
26537;DHT22;14204;51.262;5.488;2024-02-15T10:28:10;15.20;99.90
26537;DHT22;14204;51.262;5.488;2024-02-15T10:30:39;15.30;99.90
26537;DHT22;14204;51.262;5.488;2024-02-15T10:33:06;15.30;99.90
26537;DHT22;14204;51.262;5.488;2024-02-15T10:35:33;15.40;99.90
26537;DHT22;14204;51.262;5.488;2024-02-15T10:38:09;15.40;99.90
26537;DHT22;14204;51.262;5.488;2024-02-15T10:40:40;15.40;99.90
26537;DHT22;14204;51.262;5.488;2024-02-15T10:43:09;15.50;99.90
26537;DHT22;14204;51.262;5.488;2024-02-15T10:45:39;15.50;99.90
26537;DHT22;14204;51.262;5.488;2024-02-15T10:48:09;15.60;99.90
26537;DHT22;14204;51.262;5.488;2024-02-15T10:50:35;15.60;99.90
26537;DHT22;14204;51.262;5.488;2024-02-15T10:53:27;15.70;99.90
26537;DHT22;14204;51.262;5.488;2024-02-15T10:58:26;15.70;99.90
26537;DHT22;14204;51.262;5.488;2024-02-15T11:00:55;15.70;99.90
26537;DHT22;14204;51.262;5.488;2024-02-15T11:03:35;15.80;99.90
26537;DHT22;14204;51.262;5.488;2024-02-15T11:06:02;15.90;99.90
26537;DHT22;14204;51.262;5.488;2024-02-15T11:08:30;16.00;99.90
26537;DHT22;14204;51.262;5.488;2024-02-15T11:10:58;16.00;99.90
26537;DHT22;14204;51.262;5.488;2024-02-15T11:13:24;16.00;99.90
26537;DHT22;14204;51.262;5.488;2024-02-15T11:15:50;16.10;99.90
26537;DHT22;14204;51.262;5.488;2024-02-15T11:21:17;16.20;99.90
26537;DHT22;14204;51.262;5.488;2024-02-15T11:23:44;16.20;99.90
26537;DHT22;14204;51.262;5.488;2024-02-15T11:26:43;16.20;99.90
26537;DHT22;14204;51.262;5.488;2024-02-15T11:32:43;16.20;99.90
26537;DHT22;14204;51.262;5.488;2024-02-15T11:35:19;16.30;99.90
26537;DHT22;14204;51.262;5.488;2024-02-15T11:43:08;16.30;99.90
26537;DHT22;14204;51.262;5.488;2024-02-15T11:45:35;16.30;99.90
26537;DHT22;14204;51.262;5.488;2024-02-15T11:48:10;16.40;99.90
26537;DHT22;14204;51.262;5.488;2024-02-15T11:50:37;16.40;99.90
26537;DHT22;14204;51.262;5.488;2024-02-15T11:53:05;16.40;99.90
26537;DHT22;14204;51.262;5.488;2024-02-15T11:55:35;16.50;99.90
26537;DHT22;14204;51.262;5.488;2024-02-15T11:58:02;16.50;99.90
26537;DHT22;14204;51.262;5.488;2024-02-15T12:00:48;16.60;99.90
26537;DHT22;14204;51.262;5.488;2024-02-15T12:03:33;16.60;99.90
26537;DHT22;14204;51.262;5.488;2024-02-15T12:06:17;16.60;99.90
26537;DHT22;14204;51.262;5.488;2024-02-15T12:09:02;16.70;99.90
26537;DHT22;14204;51.262;5.488;2024-02-15T12:11:46;16.70;99.90
26537;DHT22;14204;51.262;5.488;2024-02-15T12:14:31;16.70;99.90
26537;DHT22;14204;51.262;5.488;2024-02-15T12:17:15;16.80;99.90
26537;DHT22;14204;51.262;5.488;2024-02-15T12:20:03;16.90;99.90
26537;DHT22;14204;51.262;5.488;2024-02-15T12:22:40;17.00;99.90
26537;DHT22;14204;51.262;5.488;2024-02-15T12:25:07;16.90;99.90
26537;DHT22;14204;51.262;5.488;2024-02-15T12:27:45;16.90;99.90
26537;DHT22;14204;51.262;5.488;2024-02-15T12:30:18;17.00;99.90
26537;DHT22;14204;51.262;5.488;2024-02-15T12:32:50;17.10;99.90
26537;DHT22;14204;51.262;5.488;2024-02-15T12:35:20;17.20;99.90
26537;DHT22;14204;51.262;5.488;2024-02-15T12:38:03;17.20;99.90
26537;DHT22;14204;51.262;5.488;2024-02-15T12:40:37;17.30;99.90
26537;DHT22;14204;51.262;5.488;2024-02-15T12:43:07;17.40;99.90
26537;DHT22;14204;51.262;5.488;2024-02-15T12:45:38;17.40;99.90
26537;DHT22;14204;51.262;5.488;2024-02-15T12:48:08;17.40;99.90
26537;DHT22;14204;51.262;5.488;2024-02-15T12:50:36;17.40;99.90
26537;DHT22;14204;51.262;5.488;2024-02-15T12:53:01;17.40;99.90
26537;DHT22;14204;51.262;5.488;2024-02-15T12:55:32;17.40;99.90
26537;DHT22;14204;51.262;5.488;2024-02-15T12:58:11;17.40;99.90
26537;DHT22;14204;51.262;5.488;2024-02-15T13:00:39;17.40;99.90
26537;DHT22;14204;51.262;5.488;2024-02-15T13:03:09;17.50;99.90
26537;DHT22;14204;51.262;5.488;2024-02-15T13:05:36;17.60;99.90
26537;DHT22;14204;51.262;5.488;2024-02-15T13:08:03;17.70;99.90
26537;DHT22;14204;51.262;5.488;2024-02-15T13:10:36;17.70;99.90
26537;DHT22;14204;51.262;5.488;2024-02-15T13:13:02;17.80;99.90
26537;DHT22;14204;51.262;5.488;2024-02-15T13:15:28;17.70;99.90
26537;DHT22;14204;51.262;5.488;2024-02-15T13:20:43;17.70;99.90
26537;DHT22;14204;51.262;5.488;2024-02-15T13:23:10;17.70;99.90
26537;DHT22;14204;51.262;5.488;2024-02-15T13:25:51;17.60;99.90
26537;DHT22;14204;51.262;5.488;2024-02-15T13:28:22;17.60;99.90
26537;DHT22;14204;51.262;5.488;2024-02-15T13:31:07;17.60;99.90
26537;DHT22;14204;51.262;5.488;2024-02-15T13:33:33;17.60;99.90
26537;DHT22;14204;51.262;5.488;2024-02-15T13:35:58;17.70;99.90
26537;DHT22;14204;51.262;5.488;2024-02-15T13:38:24;17.70;99.90
26537;DHT22;14204;51.262;5.488;2024-02-15T13:40:50;17.60;99.90
26537;DHT22;14204;51.262;5.488;2024-02-15T13:43:16;17.60;99.90
26537;DHT22;14204;51.262;5.488;2024-02-15T13:45:43;17.50;99.90
26537;DHT22;14204;51.262;5.488;2024-02-15T13:48:10;17.50;99.90
26537;DHT22;14204;51.262;5.488;2024-02-15T13:50:39;17.50;99.90
26537;DHT22;14204;51.262;5.488;2024-02-15T13:53:05;17.50;99.90
26537;DHT22;14204;51.262;5.488;2024-02-15T13:55:31;17.50;99.90
26537;DHT22;14204;51.262;5.488;2024-02-15T13:57:57;17.40;99.90
26537;DHT22;14204;51.262;5.488;2024-02-15T14:03:10;17.40;99.90
26537;DHT22;14204;51.262;5.488;2024-02-15T14:05:36;17.40;99.90
26537;DHT22;14204;51.262;5.488;2024-02-15T14:08:05;17.30;99.90
26537;DHT22;14204;51.262;5.488;2024-02-15T14:10:50;17.40;99.90
26537;DHT22;14204;51.262;5.488;2024-02-15T14:16:01;17.50;99.90
26537;DHT22;14204;51.262;5.488;2024-02-15T14:18:28;17.50;99.90
26537;DHT22;14204;51.262;5.488;2024-02-15T14:20:54;17.50;99.90
26537;DHT22;14204;51.262;5.488;2024-02-15T14:23:20;17.50;99.90
26537;DHT22;14204;51.262;5.488;2024-02-15T14:25:46;17.60;99.90
26537;DHT22;14204;51.262;5.488;2024-02-15T14:28:11;17.60;99.90
26537;DHT22;14204;51.262;5.488;2024-02-15T14:30:39;17.60;99.90
26537;DHT22;14204;51.262;5.488;2024-02-15T14:33:24;17.60;99.90
26537;DHT22;14204;51.262;5.488;2024-02-15T14:35:50;17.60;99.90
26537;DHT22;14204;51.262;5.488;2024-02-15T14:38:19;17.60;99.90
26537;DHT22;14204;51.262;5.488;2024-02-15T14:40:48;17.60;99.90
26537;DHT22;14204;51.262;5.488;2024-02-15T14:43:26;17.50;99.90
26537;DHT22;14204;51.262;5.488;2024-02-15T14:45:52;17.50;99.90
26537;DHT22;14204;51.262;5.488;2024-02-15T14:48:21;17.40;99.90
26537;DHT22;14204;51.262;5.488;2024-02-15T14:50:49;17.40;99.90
26537;DHT22;14204;51.262;5.488;2024-02-15T14:53:16;17.40;99.90
26537;DHT22;14204;51.262;5.488;2024-02-15T14:55:43;17.40;99.90
26537;DHT22;14204;51.262;5.488;2024-02-15T14:58:12;17.30;99.90
26537;DHT22;14204;51.262;5.488;2024-02-15T15:00:39;17.30;99.90
26537;DHT22;14204;51.262;5.488;2024-02-15T15:03:07;17.30;99.90
26537;DHT22;14204;51.262;5.488;2024-02-15T15:05:33;17.30;99.90
26537;DHT22;14204;51.262;5.488;2024-02-15T15:08:17;17.20;99.90
26537;DHT22;14204;51.262;5.488;2024-02-15T15:11:01;17.20;99.90
26537;DHT22;14204;51.262;5.488;2024-02-15T15:13:45;17.30;99.90
26537;DHT22;14204;51.262;5.488;2024-02-15T15:16:11;17.30;99.90
26537;DHT22;14204;51.262;5.488;2024-02-15T15:18:58;17.20;99.90
26537;DHT22;14204;51.262;5.488;2024-02-15T15:21:24;17.30;99.90
26537;DHT22;14204;51.262;5.488;2024-02-15T15:23:53;17.30;99.90
26537;DHT22;14204;51.262;5.488;2024-02-15T15:26:37;17.30;99.90
26537;DHT22;14204;51.262;5.488;2024-02-15T15:29:03;17.30;99.90
26537;DHT22;14204;51.262;5.488;2024-02-15T15:31:30;17.30;99.90
26537;DHT22;14204;51.262;5.488;2024-02-15T15:34:15;17.30;99.90
26537;DHT22;14204;51.262;5.488;2024-02-15T15:36:42;17.30;99.90
26537;DHT22;14204;51.262;5.488;2024-02-15T15:39:07;17.30;99.90
26537;DHT22;14204;51.262;5.488;2024-02-15T15:41:36;17.20;99.90
26537;DHT22;14204;51.262;5.488;2024-02-15T15:44:03;17.20;99.90
26537;DHT22;14204;51.262;5.488;2024-02-15T15:46:28;17.20;99.90
26537;DHT22;14204;51.262;5.488;2024-02-15T15:48:54;17.20;99.90
26537;DHT22;14204;51.262;5.488;2024-02-15T15:51:20;17.20;99.90
26537;DHT22;14204;51.262;5.488;2024-02-15T15:53:46;17.10;99.90
26537;DHT22;14204;51.262;5.488;2024-02-15T15:56:32;17.10;99.90
26537;DHT22;14204;51.262;5.488;2024-02-15T15:58:58;17.00;99.90
26537;DHT22;14204;51.262;5.488;2024-02-15T16:01:24;17.00;99.90
26537;DHT22;14204;51.262;5.488;2024-02-15T16:03:49;17.10;99.90
26537;DHT22;14204;51.262;5.488;2024-02-15T16:06:16;17.00;99.90
26537;DHT22;14204;51.262;5.488;2024-02-15T16:08:41;16.90;99.90